createdAt,value
2017-12-09T00:01:36.479Z,81.43
2017-12-09T00:04:05.595Z,81.03
2017-12-09T00:06:33.923Z,81.23
2017-12-09T00:09:02.244Z,80.34
2017-12-09T00:11:30.582Z,80.83
2017-12-09T00:13:58.909Z,80.37
2017-12-09T00:16:27.223Z,79.98
2017-12-09T00:18:55.561Z,79.34
2017-12-09T00:21:23.872Z,79.00
2017-12-09T00:23:52.209Z,79.00
2017-12-09T00:26:20.560Z,79.52
2017-12-09T00:28:48.876Z,79.20
2017-12-09T00:31:17.191Z,79.76
2017-12-09T00:33:45.529Z,79.85
2017-12-09T00:36:13.839Z,79.50
2017-12-09T00:38:42.175Z,79.54
2017-12-09T00:41:10.503Z,78.75
2017-12-09T00:43:38.805Z,77.51
2017-12-09T00:46:07.886Z,77.61
2017-12-09T00:48:36.211Z,78.64
2017-12-09T00:51:04.523Z,79.32
2017-12-09T00:53:32.836Z,80.56
2017-12-09T00:56:01.947Z,80.98
2017-12-09T00:58:30.283Z,80.87
2017-12-09T01:00:58.591Z,80.88
2017-12-09T01:03:26.931Z,81.07
2017-12-09T01:05:55.252Z,80.82
2017-12-09T01:08:24.360Z,80.30
2017-12-09T01:10:52.706Z,80.00
2017-12-09T01:13:21.006Z,80.04
2017-12-09T01:16:06.953Z,80.25
2017-12-09T01:18:52.879Z,80.10
2017-12-09T01:21:22.000Z,79.79
2017-12-09T01:23:50.319Z,79.67
2017-12-09T01:26:18.639Z,79.70
2017-12-09T01:28:47.743Z,79.60
2017-12-09T01:31:16.079Z,79.80
2017-12-09T01:33:44.382Z,79.99
2017-12-09T01:36:13.456Z,79.73
2017-12-09T01:38:41.804Z,79.97
2017-12-09T01:41:10.130Z,80.24
2017-12-09T01:43:39.205Z,80.56
2017-12-09T01:46:07.543Z,80.28
2017-12-09T01:48:35.861Z,81.44
2017-12-09T01:51:04.188Z,81.83
2017-12-09T01:53:32.527Z,83.18
2017-12-09T01:56:01.609Z,84.30
2017-12-09T01:58:29.958Z,85.04
2017-12-09T02:00:58.304Z,85.98
2017-12-09T02:03:26.637Z,86.19
2017-12-09T02:05:54.961Z,86.23
2017-12-09T02:08:23.315Z,86.57
2017-12-09T02:10:52.411Z,86.29
2017-12-09T02:13:21.488Z,86.82
2017-12-09T02:15:49.924Z,86.81
2017-12-09T02:18:18.243Z,86.70
2017-12-09T02:20:46.556Z,86.36
2017-12-09T02:23:14.968Z,85.58
2017-12-09T02:25:43.293Z,84.91
2017-12-09T02:28:11.607Z,84.62
2017-12-09T02:30:39.975Z,83.89
2017-12-09T02:33:08.278Z,84.08
2017-12-09T02:35:36.594Z,83.84
2017-12-09T02:38:04.929Z,83.72
2017-12-09T02:40:33.263Z,83.48
2017-12-09T02:43:02.356Z,83.41
2017-12-09T02:45:31.455Z,83.34
2017-12-09T02:48:00.675Z,83.65
2017-12-09T02:50:28.984Z,83.52
2017-12-09T02:52:57.323Z,83.67
2017-12-09T02:55:26.400Z,84.18
2017-12-09T02:57:55.503Z,84.23
2017-12-09T03:00:24.604Z,84.43
2017-12-09T03:02:53.672Z,85.06
2017-12-09T03:05:21.995Z,85.37
2017-12-09T03:07:50.339Z,85.63
2017-12-09T03:10:18.653Z,85.75
2017-12-09T03:12:46.971Z,85.60
2017-12-09T03:15:15.342Z,85.47
2017-12-09T03:17:43.659Z,85.49
2017-12-09T03:20:12.739Z,84.98
2017-12-09T03:22:41.084Z,84.94
2017-12-09T03:25:09.407Z,85.09
2017-12-09T03:27:38.492Z,85.00
2017-12-09T03:30:06.838Z,85.35
2017-12-09T03:32:35.157Z,85.34
2017-12-09T03:35:04.249Z,85.38
2017-12-09T03:37:32.609Z,85.60
2017-12-09T03:40:00.933Z,86.12
2017-12-09T03:42:29.245Z,85.84
2017-12-09T03:44:57.583Z,86.06
2017-12-09T03:47:25.903Z,86.12
2017-12-09T03:49:54.233Z,86.54
2017-12-09T03:52:22.567Z,86.58
2017-12-09T03:54:50.908Z,86.68
2017-12-09T03:57:19.217Z,86.85
2017-12-09T03:59:47.558Z,86.86
2017-12-09T04:02:15.881Z,86.55
2017-12-09T04:04:44.203Z,86.71
2017-12-09T04:07:12.575Z,86.62
2017-12-09T04:09:41.650Z,86.57
2017-12-09T04:12:10.757Z,86.01
2017-12-09T04:14:39.874Z,85.82
2017-12-09T04:17:08.955Z,85.58
2017-12-09T04:19:38.068Z,85.21
2017-12-09T04:22:06.375Z,85.02
2017-12-09T04:24:34.684Z,84.96
2017-12-09T04:27:03.070Z,84.88
2017-12-09T04:29:32.195Z,84.74
2017-12-09T04:32:00.576Z,84.16
2017-12-09T04:34:28.935Z,84.13
2017-12-09T04:36:58.045Z,84.61
2017-12-09T04:39:26.364Z,84.49
2017-12-09T04:41:54.727Z,84.70
2017-12-09T04:44:23.043Z,84.47
2017-12-09T04:46:51.364Z,84.31
2017-12-09T04:49:19.732Z,84.53
2017-12-09T04:51:48.042Z,84.47
2017-12-09T04:54:16.351Z,84.37
2017-12-09T04:56:44.689Z,83.72
2017-12-09T04:59:13.003Z,83.51
2017-12-09T05:01:41.351Z,83.48
2017-12-09T05:04:09.679Z,83.14
2017-12-09T05:06:38.761Z,83.23
2017-12-09T05:09:07.855Z,82.97
2017-12-09T05:11:36.212Z,82.78
2017-12-09T05:14:04.527Z,82.75
2017-12-09T05:16:33.631Z,82.43
2017-12-09T05:19:02.753Z,81.53
2017-12-09T05:21:31.100Z,81.38
2017-12-09T05:24:00.191Z,81.56
2017-12-09T05:26:29.335Z,80.85
2017-12-09T05:28:57.664Z,80.45
2017-12-09T05:31:26.788Z,80.62
2017-12-09T05:33:55.137Z,80.43
2017-12-09T05:36:24.231Z,80.29
2017-12-09T05:38:53.329Z,79.49
2017-12-09T05:41:21.664Z,79.22
2017-12-09T05:43:49.995Z,79.47
2017-12-09T05:46:19.191Z,79.36
2017-12-09T05:48:47.530Z,79.62
2017-12-09T05:51:15.858Z,79.81
2017-12-09T05:53:44.203Z,79.99
2017-12-09T05:56:12.537Z,79.70
2017-12-09T05:58:40.843Z,79.86
2017-12-09T06:01:09.155Z,80.08
2017-12-09T06:03:37.508Z,79.90
2017-12-09T06:06:05.836Z,79.41
2017-12-09T06:08:34.160Z,79.57
2017-12-09T06:11:02.491Z,78.29
2017-12-09T06:13:30.799Z,77.96
2017-12-09T06:15:59.136Z,78.10
2017-12-09T06:18:27.468Z,77.98
2017-12-09T06:20:55.787Z,76.73
2017-12-09T06:23:24.116Z,75.73
2017-12-09T06:25:52.445Z,76.46
2017-12-09T06:28:20.760Z,75.12
2017-12-09T06:30:49.114Z,73.66
2017-12-09T06:33:17.418Z,73.86
2017-12-09T06:35:45.734Z,73.45
2017-12-09T06:38:14.835Z,73.81
2017-12-09T06:40:43.964Z,74.09
2017-12-09T06:43:12.276Z,74.36
2017-12-09T06:45:40.620Z,73.21
2017-12-09T06:48:08.931Z,74.52
2017-12-09T06:50:37.240Z,75.24
2017-12-09T06:53:06.340Z,74.20
2017-12-09T06:55:35.419Z,73.90
2017-12-09T06:58:04.503Z,74.50
2017-12-09T07:00:32.882Z,74.94
2017-12-09T07:03:01.200Z,74.90
2017-12-09T07:05:29.523Z,74.29
2017-12-09T07:07:57.871Z,74.63
2017-12-09T07:10:26.170Z,75.44
2017-12-09T07:12:54.475Z,74.51
2017-12-09T07:15:22.811Z,74.98
2017-12-09T07:17:51.120Z,74.88
2017-12-09T07:20:19.426Z,74.54
2017-12-09T07:22:48.529Z,74.58
2017-12-09T07:25:16.834Z,74.53
2017-12-09T07:27:45.135Z,75.13
2017-12-09T07:30:13.476Z,75.68
2017-12-09T07:32:41.787Z,75.32
2017-12-09T07:35:10.104Z,75.17
2017-12-09T07:37:38.452Z,74.74
2017-12-09T07:40:06.777Z,73.68
2017-12-09T07:42:35.091Z,73.98
2017-12-09T07:45:03.419Z,73.59
2017-12-09T07:47:32.496Z,74.93
2017-12-09T07:50:00.799Z,75.25
2017-12-09T07:52:29.128Z,75.89
2017-12-09T07:54:58.212Z,75.92
2017-12-09T07:57:26.515Z,76.35
2017-12-09T07:59:54.855Z,77.38
2017-12-09T08:02:23.159Z,78.14
2017-12-09T08:04:51.460Z,80.19
2017-12-09T08:07:20.851Z,81.78
2017-12-09T08:09:49.160Z,83.09
2017-12-09T08:12:18.234Z,84.18
2017-12-09T08:14:47.355Z,84.83
2017-12-09T08:17:15.663Z,86.00
2017-12-09T08:19:43.980Z,86.88
2017-12-09T08:22:12.328Z,86.91
2017-12-09T08:24:40.639Z,87.38
2017-12-09T08:27:08.948Z,87.79
2017-12-09T08:29:37.304Z,88.09
2017-12-09T08:32:06.383Z,87.08
2017-12-09T08:34:34.708Z,86.47
2017-12-09T08:37:03.058Z,85.70
2017-12-09T08:39:32.127Z,85.45
2017-12-09T08:42:00.438Z,85.51
2017-12-09T08:44:28.775Z,86.15
2017-12-09T08:46:57.110Z,85.89
2017-12-09T08:49:25.418Z,86.47
2017-12-09T08:51:53.751Z,86.71
2017-12-09T08:54:22.079Z,87.25
2017-12-09T08:56:50.387Z,86.93
2017-12-09T08:59:19.504Z,87.27
2017-12-09T09:01:47.815Z,87.71
2017-12-09T09:04:16.110Z,88.33
2017-12-09T09:06:44.436Z,88.54
2017-12-09T09:09:12.759Z,88.54
2017-12-09T09:11:41.083Z,88.55
2017-12-09T09:14:09.391Z,88.84
2017-12-09T09:16:37.696Z,89.45
2017-12-09T09:19:06.062Z,89.67
2017-12-09T09:21:34.388Z,89.37
2017-12-09T09:24:03.469Z,89.47
2017-12-09T09:26:31.888Z,89.71
2017-12-09T09:29:00.381Z,89.94
2017-12-09T09:31:28.716Z,89.60
2017-12-09T09:33:57.898Z,89.23
2017-12-09T09:36:26.224Z,88.92
2017-12-09T09:38:54.552Z,87.91
2017-12-09T09:41:22.908Z,87.86
2017-12-09T09:43:51.236Z,87.65
2017-12-09T09:46:19.579Z,87.15
2017-12-09T09:48:47.912Z,86.64
2017-12-09T09:51:16.267Z,87.19
2017-12-09T09:53:44.643Z,86.73
2017-12-09T09:56:13.159Z,87.20
2017-12-09T09:58:41.483Z,86.96
2017-12-09T10:01:09.915Z,86.91
2017-12-09T10:03:38.434Z,86.49
2017-12-09T10:06:06.781Z,86.61
2017-12-09T10:08:35.131Z,86.31
2017-12-09T10:11:03.454Z,86.22
2017-12-09T10:13:31.847Z,86.24
2017-12-09T10:16:00.411Z,86.43
2017-12-09T10:18:28.808Z,87.26
2017-12-09T10:20:57.338Z,87.51
2017-12-09T10:23:25.769Z,87.43
2017-12-09T10:25:54.113Z,86.96
2017-12-09T10:28:22.484Z,86.42
2017-12-09T10:30:50.998Z,86.51
2017-12-09T10:33:19.384Z,86.68
2017-12-09T10:35:47.840Z,86.62
2017-12-09T10:38:16.194Z,86.04
2017-12-09T10:40:44.554Z,85.81
2017-12-09T10:43:13.956Z,85.36
2017-12-09T10:45:44.348Z,85.28
2017-12-09T10:48:12.829Z,84.74
2017-12-09T10:50:41.366Z,84.31
2017-12-09T10:53:10.154Z,84.41
2017-12-09T10:55:38.635Z,86.17
2017-12-09T10:58:07.112Z,82.39
2017-12-09T11:00:35.635Z,82.39
2017-12-09T11:03:04.124Z,82.58
2017-12-09T11:05:32.554Z,81.83
2017-12-09T11:08:01.043Z,81.71
2017-12-09T11:10:29.754Z,81.86
2017-12-09T11:12:58.188Z,81.93
2017-12-09T11:15:27.536Z,82.32
2017-12-09T11:17:56.734Z,81.09
2017-12-09T11:20:25.084Z,81.14
2017-12-09T11:22:53.491Z,81.58
2017-12-09T11:25:21.952Z,81.81
2017-12-09T11:27:50.465Z,81.26
2017-12-09T11:30:19.032Z,80.15
2017-12-09T11:32:47.426Z,79.87
2017-12-09T11:35:15.875Z,78.82
2017-12-09T11:37:44.205Z,79.60
2017-12-09T11:40:12.516Z,80.02
2017-12-09T11:42:41.587Z,80.45
2017-12-09T11:45:10.007Z,80.20
2017-12-09T11:47:39.187Z,80.01
2017-12-09T11:50:07.493Z,79.38
2017-12-09T11:52:35.824Z,79.30
2017-12-09T11:55:05.173Z,79.30
2017-12-09T11:57:33.477Z,79.25
2017-12-09T12:00:01.826Z,80.32
2017-12-09T12:02:30.135Z,80.38
2017-12-09T12:04:58.447Z,81.42
2017-12-09T12:07:27.534Z,81.72
2017-12-09T12:09:56.639Z,83.57
2017-12-09T12:12:24.960Z,84.03
2017-12-09T12:14:54.069Z,83.29
2017-12-09T12:17:22.399Z,83.47
2017-12-09T12:19:50.724Z,82.13
2017-12-09T12:22:19.819Z,81.90
2017-12-09T12:24:48.159Z,81.10
2017-12-09T12:27:16.474Z,80.02
2017-12-09T12:29:44.786Z,79.93
2017-12-09T12:32:13.897Z,80.67
2017-12-09T12:34:42.218Z,81.47
2017-12-09T12:37:10.539Z,81.91
2017-12-09T12:39:39.659Z,81.79
2017-12-09T12:42:07.971Z,81.76
2017-12-09T12:44:36.284Z,82.36
2017-12-09T12:47:05.396Z,81.92
2017-12-09T12:49:33.722Z,82.07
2017-12-09T12:52:02.031Z,81.96
2017-12-09T12:54:30.359Z,81.69
2017-12-09T12:56:58.682Z,81.86
2017-12-09T12:59:27.015Z,82.31
2017-12-09T13:01:55.331Z,82.55
2017-12-09T13:04:23.643Z,81.58
2017-12-09T13:06:51.976Z,81.71
2017-12-09T13:09:20.299Z,82.03
2017-12-09T13:11:48.664Z,82.43
2017-12-09T13:14:17.771Z,82.66
2017-12-09T13:16:46.110Z,83.11
2017-12-09T13:19:14.437Z,82.92
2017-12-09T13:21:42.783Z,83.00
2017-12-09T13:24:11.877Z,83.18
2017-12-09T13:26:40.193Z,82.71
2017-12-09T13:29:08.520Z,82.18
2017-12-09T13:31:36.839Z,81.86
2017-12-09T13:34:05.145Z,81.90
2017-12-09T13:36:33.510Z,81.62
2017-12-09T13:39:01.889Z,81.43
2017-12-09T13:41:30.243Z,81.61
2017-12-09T13:43:58.564Z,81.40
2017-12-09T13:46:26.880Z,81.72
2017-12-09T13:48:55.979Z,81.98
2017-12-09T13:51:25.056Z,82.23
2017-12-09T13:53:53.414Z,82.29
2017-12-09T13:56:21.751Z,82.28
2017-12-09T13:58:50.107Z,82.18
2017-12-09T14:01:19.201Z,81.66
2017-12-09T14:03:48.319Z,81.19
2017-12-09T14:06:16.635Z,81.32
2017-12-09T14:08:44.988Z,82.08
2017-12-09T14:11:13.343Z,81.99
2017-12-09T14:13:41.685Z,82.51
2017-12-09T14:16:10.004Z,82.35
2017-12-09T14:18:38.347Z,82.33
2017-12-09T14:21:06.683Z,81.90
2017-12-09T14:23:35.000Z,81.90
2017-12-09T14:26:03.351Z,81.99
2017-12-09T14:28:31.666Z,81.89
2017-12-09T14:31:00.012Z,81.92
2017-12-09T14:33:28.364Z,82.45
2017-12-09T14:35:56.687Z,82.27
2017-12-09T14:38:25.027Z,82.18
2017-12-09T14:40:53.638Z,82.14
2017-12-09T14:43:21.986Z,82.08
2017-12-09T14:45:50.307Z,82.08
2017-12-09T14:48:18.648Z,81.96
2017-12-09T14:50:46.967Z,82.22
2017-12-09T14:53:15.288Z,82.16
2017-12-09T14:55:43.647Z,82.33
2017-12-09T14:58:12.748Z,82.46
2017-12-09T15:00:41.091Z,82.61
2017-12-09T15:03:09.608Z,83.10
2017-12-09T15:05:37.985Z,83.16
2017-12-09T15:08:07.078Z,83.01
2017-12-09T15:10:35.432Z,83.30
2017-12-09T15:13:03.747Z,82.75
2017-12-09T15:15:32.083Z,82.80
2017-12-09T15:18:00.428Z,82.71
2017-12-09T15:20:28.748Z,82.63
2017-12-09T15:22:57.092Z,83.14
2017-12-09T15:25:25.429Z,83.79
2017-12-09T15:27:53.739Z,84.35
2017-12-09T15:30:22.053Z,84.16
2017-12-09T15:32:50.383Z,84.22
2017-12-09T15:35:18.696Z,84.45
2017-12-09T15:37:47.017Z,83.43
2017-12-09T15:40:15.339Z,84.11
2017-12-09T15:42:43.655Z,83.58
2017-12-09T15:45:12.755Z,83.58
2017-12-09T15:47:41.836Z,83.80
2017-12-09T15:50:10.962Z,83.30
2017-12-09T15:52:40.060Z,83.50
2017-12-09T15:55:08.379Z,83.68
2017-12-09T15:57:40.184Z,83.52
2017-12-09T16:00:10.212Z,83.69
2017-12-09T16:02:40.971Z,84.19
2017-12-09T16:05:10.277Z,84.52
2017-12-09T16:07:38.608Z,83.73
2017-12-09T16:10:07.752Z,83.58
2017-12-09T16:12:36.892Z,83.78
2017-12-09T16:15:05.979Z,83.73
2017-12-09T16:17:34.332Z,83.77
2017-12-09T16:20:02.687Z,83.53
2017-12-09T16:22:31.019Z,83.66
2017-12-09T16:24:59.369Z,83.20
2017-12-09T16:27:27.728Z,83.35
2017-12-09T16:29:56.091Z,83.32
2017-12-09T16:32:24.439Z,83.46
2017-12-09T16:34:53.536Z,83.68
2017-12-09T16:37:21.883Z,83.97
2017-12-09T16:39:50.235Z,83.45
2017-12-09T16:42:18.563Z,83.33
2017-12-09T16:44:46.899Z,83.20
2017-12-09T16:47:15.245Z,82.92
2017-12-09T16:49:43.555Z,82.83
2017-12-09T16:52:11.883Z,83.54
2017-12-09T16:54:40.993Z,83.80
2017-12-09T16:57:09.317Z,83.60
2017-12-09T16:59:37.639Z,83.55
2017-12-09T17:02:06.725Z,83.56
2017-12-09T17:04:36.119Z,83.67
2017-12-09T17:07:05.263Z,83.60
2017-12-09T17:09:33.579Z,83.35
2017-12-09T17:12:01.923Z,83.09
2017-12-09T17:14:30.275Z,82.99
2017-12-09T17:16:58.584Z,82.97
2017-12-09T17:19:26.903Z,82.59
2017-12-09T17:21:56.031Z,82.50
2017-12-09T17:24:24.359Z,82.25
2017-12-09T17:26:52.679Z,82.52
2017-12-09T17:29:21.028Z,82.32
2017-12-09T17:31:49.400Z,82.34
2017-12-09T17:34:17.715Z,82.70
2017-12-09T17:36:46.055Z,83.13
2017-12-09T17:39:14.379Z,83.03
2017-12-09T17:41:42.715Z,82.78
2017-12-09T17:44:11.862Z,82.60
2017-12-09T17:46:40.188Z,83.17
2017-12-09T17:49:08.544Z,83.51
2017-12-09T17:51:36.907Z,83.69
2017-12-09T17:54:05.232Z,82.90
2017-12-09T17:56:33.539Z,82.64
2017-12-09T17:59:01.876Z,82.73
2017-12-09T18:01:30.239Z,82.40
2017-12-09T18:03:58.567Z,82.47
2017-12-09T18:06:27.669Z,82.75
2017-12-09T18:08:55.997Z,82.40
2017-12-09T18:11:24.342Z,82.66
2017-12-09T18:13:52.677Z,82.24
2017-12-09T18:16:21.781Z,82.31
2017-12-09T18:18:50.868Z,82.35
2017-12-09T18:21:19.972Z,82.48
2017-12-09T18:23:48.296Z,82.76
2017-12-09T18:26:16.618Z,82.74
2017-12-09T18:28:45.763Z,82.46
2017-12-09T18:31:14.095Z,81.96
2017-12-09T18:33:43.187Z,82.03
2017-12-09T18:36:12.320Z,86.13
2017-12-09T18:38:40.635Z,82.31
2017-12-09T18:41:08.948Z,81.92
2017-12-09T18:43:38.047Z,81.54
2017-12-09T18:46:07.125Z,81.21
2017-12-09T18:48:35.463Z,81.59
2017-12-09T18:51:03.800Z,81.63
2017-12-09T18:53:32.938Z,81.11
2017-12-09T18:56:01.223Z,81.49
2017-12-09T18:58:29.555Z,81.47
2017-12-09T19:00:57.883Z,81.45
2017-12-09T19:03:26.195Z,81.11
2017-12-09T19:05:55.303Z,81.47
2017-12-09T19:08:24.410Z,81.89
2017-12-09T19:10:53.524Z,82.56
2017-12-09T19:13:21.865Z,83.70
2017-12-09T19:15:50.947Z,84.63
2017-12-09T19:18:19.263Z,84.19
2017-12-09T19:20:47.601Z,84.64
2017-12-09T19:23:15.913Z,84.78
2017-12-09T19:25:44.228Z,85.06
2017-12-09T19:28:12.581Z,85.38
2017-12-09T19:30:40.876Z,85.05
2017-12-09T19:33:09.251Z,84.81
2017-12-09T19:35:37.557Z,85.04
2017-12-09T19:38:05.872Z,84.65
2017-12-09T19:40:34.310Z,83.69
2017-12-09T19:43:02.624Z,83.35
2017-12-09T19:45:30.936Z,83.26
2017-12-09T19:47:59.290Z,83.04
2017-12-09T19:50:27.604Z,82.99
2017-12-09T19:52:55.919Z,82.69
2017-12-09T19:55:25.038Z,82.61
2017-12-09T19:57:53.360Z,83.14
2017-12-09T20:00:21.687Z,82.44
2017-12-09T20:02:50.032Z,82.89
2017-12-09T20:05:18.347Z,82.80
2017-12-09T20:07:46.680Z,82.39
2017-12-09T20:10:15.044Z,82.83
2017-12-09T20:12:43.364Z,82.92
2017-12-09T20:15:12.435Z,83.26
2017-12-09T20:17:40.779Z,83.69
2017-12-09T20:20:09.093Z,83.44
2017-12-09T20:22:37.399Z,82.94
2017-12-09T20:25:06.507Z,83.13
2017-12-09T20:27:34.823Z,83.63
2017-12-09T20:30:03.183Z,83.48
2017-12-09T20:32:31.499Z,83.29
2017-12-09T20:34:59.804Z,83.47
2017-12-09T20:37:28.900Z,83.52
2017-12-09T20:39:57.971Z,83.88
2017-12-09T20:42:26.279Z,83.72
2017-12-09T20:44:54.617Z,84.02
2017-12-09T20:47:22.939Z,83.96
2017-12-09T20:49:51.260Z,84.28
2017-12-09T20:52:19.591Z,84.22
2017-12-09T20:54:47.908Z,84.24
2017-12-09T20:57:16.219Z,84.50
2017-12-09T20:59:44.610Z,84.56
2017-12-09T21:02:13.704Z,84.71
2017-12-09T21:04:42.787Z,85.26
2017-12-09T21:07:11.895Z,86.55
2017-12-09T21:09:40.969Z,87.47
2017-12-09T21:12:09.279Z,88.76
2017-12-09T21:14:37.617Z,89.15
2017-12-09T21:17:05.929Z,90.33
2017-12-09T21:19:35.008Z,90.47
2017-12-09T21:22:04.124Z,90.69
2017-12-09T21:24:32.442Z,90.52
2017-12-09T21:27:00.768Z,90.43
2017-12-09T21:29:29.106Z,90.13
2017-12-09T21:31:57.443Z,90.09
2017-12-09T21:34:25.763Z,90.21
2017-12-09T21:36:54.097Z,90.72
2017-12-09T21:39:22.428Z,90.89
2017-12-09T21:41:50.773Z,91.25
2017-12-09T21:44:19.117Z,91.14
2017-12-09T21:46:48.193Z,91.07
2017-12-09T21:49:16.500Z,91.30
2017-12-09T21:51:44.854Z,91.21
2017-12-09T21:54:13.928Z,91.28
2017-12-09T21:56:42.231Z,91.24
2017-12-09T21:59:11.343Z,91.04
2017-12-09T22:01:39.657Z,90.93
2017-12-09T22:04:07.976Z,90.80
2017-12-09T22:06:37.071Z,90.60
2017-12-09T22:09:06.156Z,90.39
2017-12-09T22:11:34.491Z,89.84
2017-12-09T22:14:02.820Z,89.79
2017-12-09T22:16:31.120Z,89.53
2017-12-09T22:18:59.461Z,89.09
2017-12-09T22:21:27.778Z,88.73
2017-12-09T22:23:56.093Z,88.51
2017-12-09T22:26:24.427Z,88.25
2017-12-09T22:28:52.741Z,87.83
2017-12-09T22:31:21.043Z,87.83
2017-12-09T22:33:49.401Z,87.64
2017-12-09T22:36:17.706Z,87.36
2017-12-09T22:38:46.054Z,86.74
2017-12-09T22:41:14.413Z,85.95
2017-12-09T22:43:42.720Z,85.36
2017-12-09T22:46:11.027Z,85.17
2017-12-09T22:48:39.361Z,84.62
2017-12-09T22:51:07.682Z,84.77
2017-12-09T22:53:36.808Z,84.54
2017-12-09T22:56:05.159Z,84.54
2017-12-09T22:58:34.240Z,83.97
2017-12-09T23:01:02.557Z,83.94
2017-12-09T23:03:30.908Z,83.69
2017-12-09T23:05:59.233Z,83.58
2017-12-09T23:08:27.543Z,83.82
2017-12-09T23:10:55.879Z,83.10
2017-12-09T23:13:24.183Z,82.37
2017-12-09T23:15:52.491Z,82.48
2017-12-09T23:18:20.835Z,82.11
2017-12-09T23:20:49.139Z,81.78
2017-12-09T23:23:17.451Z,81.53
2017-12-09T23:25:45.799Z,81.29
2017-12-09T23:28:14.938Z,81.17
2017-12-09T23:30:43.269Z,80.49
2017-12-09T23:33:11.604Z,81.67
2017-12-09T23:35:39.938Z,81.40
2017-12-09T23:38:09.028Z,80.90
2017-12-09T23:40:37.363Z,81.86
2017-12-09T23:43:05.676Z,82.72
2017-12-09T23:45:33.994Z,83.20
2017-12-09T23:48:02.331Z,82.84
2017-12-09T23:50:30.650Z,83.00
2017-12-09T23:52:58.959Z,82.90
2017-12-09T23:55:28.157Z,83.23
2017-12-09T23:57:56.460Z,83.04
